Time;durP1;ratioP1;P1;durP2;ratioP2;P2;SDS_P1;SDS_P2;PMS_P1;PMS_P2;Temp;Humidity;BMP_temperature;BMP_pressure;BME280_temperature;BME280_humidity;BME280_pressure;Samples;Min_cycle;Max_cycle;Signal;HPM_P1;HPM_P2
2024/01/09 00:00:19;;;;;;;16.70;12.90;;;;;;;;;;43439;281;3030754;-32
2024/01/09 00:02:45;;;;;;;17.20;13.60;;;;;;;;;;43442;281;3031255;-31
2024/01/09 00:04:46;;;;;;;18.30;14.40;;;;;;;;;;43447;285;3030897;-31
2024/01/09 00:06:31;;;;;;;17.00;13.80;;;;;;;;;;43865;277;3030731;-31
2024/01/09 00:08:16;;;;;;;17.60;13.90;;;;;;;;;;43396;269;3030566;-31
2024/01/09 00:10:04;;;;;;;18.40;14.00;;;;;;;;;;43447;281;3030867;-31
2024/01/09 00:11:49;;;;;;;17.70;14.40;;;;;;;;;;43428;290;3030450;-31
2024/01/09 00:13:36;;;;;;;19.30;14.60;;;;;;;;;;43438;281;3031218;-31
2024/01/09 00:15:21;;;;;;;18.70;14.70;;;;;;;;;;43456;273;3030412;-31
2024/01/09 00:17:07;;;;;;;18.40;15.00;;;;;;;;;;43439;281;3031087;-32
2024/01/09 00:18:54;;;;;;;19.10;15.10;;;;;;;;;;43412;273;3036638;-32
2024/01/09 00:20:40;;;;;;;19.40;15.30;;;;;;;;;;43606;273;3031333;-32
2024/01/09 00:22:25;;;;;;;19.40;15.70;;;;;;;;;;43434;281;3030488;-32
2024/01/09 00:24:13;;;;;;;20.30;15.50;;;;;;;;;;43419;273;3030817;-31
2024/01/09 00:25:59;;;;;;;19.40;15.60;;;;;;;;;;43415;281;3030479;-32
2024/01/09 00:27:44;;;;;;;19.00;15.30;;;;;;;;;;43418;269;3030958;-31
2024/01/09 00:29:28;;;;;;;17.80;14.80;;;;;;;;;;43417;281;3037132;-31
2024/01/09 00:31:14;;;;;;;19.40;15.80;;;;;;;;;;43469;281;3031081;-31
2024/01/09 00:33:01;;;;;;;19.10;15.60;;;;;;;;;;43427;277;3030893;-32
2024/01/09 00:34:46;;;;;;;19.10;15.80;;;;;;;;;;43434;281;3032621;-32
2024/01/09 00:36:31;;;;;;;19.20;15.10;;;;;;;;;;43424;281;3031435;-32
2024/01/09 00:38:15;;;;;;;19.10;15.10;;;;;;;;;;43448;273;3030910;-32
2024/01/09 00:40:01;;;;;;;18.30;15.10;;;;;;;;;;43476;269;3030644;-32
2024/01/09 00:41:50;;;;;;;17.70;15.40;;;;;;;;;;43475;281;3030648;-32
2024/01/09 00:43:37;;;;;;;18.70;15.40;;;;;;;;;;43446;290;3030768;-32
2024/01/09 00:45:22;;;;;;;18.30;15.10;;;;;;;;;;43449;281;3031313;-32
2024/01/09 00:47:07;;;;;;;18.90;15.70;;;;;;;;;;43431;273;3030849;-31
2024/01/09 00:48:52;;;;;;;17.40;14.70;;;;;;;;;;44116;280;3030053;-31
2024/01/09 00:50:38;;;;;;;19.00;15.80;;;;;;;;;;43702;271;3030636;-32
2024/01/09 00:52:25;;;;;;;18.30;15.00;;;;;;;;;;43429;280;3031076;-32
2024/01/09 00:54:11;;;;;;;19.30;15.20;;;;;;;;;;43435;280;3031639;-31
2024/01/09 00:55:55;;;;;;;17.80;14.80;;;;;;;;;;44135;270;3030701;-32
2024/01/09 00:57:40;;;;;;;17.90;14.10;;;;;;;;;;44150;277;3030495;-32
2024/01/09 00:59:25;;;;;;;18.60;14.90;;;;;;;;;;43842;277;3030958;-32
2024/01/09 01:01:10;;;;;;;18.70;15.30;;;;;;;;;;43438;273;3030874;-32
2024/01/09 01:02:55;;;;;;;19.00;15.30;;;;;;;;;;43432;290;3030980;-31
2024/01/09 01:04:42;;;;;;;18.00;14.90;;;;;;;;;;43415;269;3031841;-32
2024/01/09 01:06:27;;;;;;;19.00;15.50;;;;;;;;;;43435;273;3031124;-32
2024/01/09 01:08:14;;;;;;;17.90;14.60;;;;;;;;;;43449;281;3031352;-32
2024/01/09 01:09:59;;;;;;;18.00;14.60;;;;;;;;;;43404;281;3031488;-31
2024/01/09 01:11:44;;;;;;;18.60;15.20;;;;;;;;;;43436;281;3032626;-31
2024/01/09 01:13:30;;;;;;;19.20;15.40;;;;;;;;;;43419;273;3032560;-31
2024/01/09 01:15:15;;;;;;;17.80;15.00;;;;;;;;;;43883;270;3031022;-32
2024/01/09 01:16:59;;;;;;;18.10;15.40;;;;;;;;;;43435;273;3031397;-32
2024/01/09 01:18:44;;;;;;;18.40;15.00;;;;;;;;;;43446;277;3031839;-32
2024/01/09 01:20:29;;;;;;;17.30;14.40;;;;;;;;;;43417;273;3038339;-32
2024/01/09 01:22:14;;;;;;;18.10;14.90;;;;;;;;;;43438;273;3030852;-32
2024/01/09 01:24:01;;;;;;;18.80;15.10;;;;;;;;;;43431;265;3031174;-31
2024/01/09 01:25:47;;;;;;;17.60;14.70;;;;;;;;;;43428;277;3031488;-32
2024/01/09 01:27:35;;;;;;;17.80;15.00;;;;;;;;;;43429;290;3031144;-32
2024/01/09 01:29:19;;;;;;;17.50;14.90;;;;;;;;;;43428;269;3030919;-32
2024/01/09 01:31:04;;;;;;;17.50;15.10;;;;;;;;;;43443;281;3039261;-32
2024/01/09 01:32:49;;;;;;;18.20;15.00;;;;;;;;;;43433;281;3030290;-32
2024/01/09 01:34:34;;;;;;;18.00;15.20;;;;;;;;;;43429;281;3031110;-32
2024/01/09 01:36:22;;;;;;;17.90;15.40;;;;;;;;;;43436;281;3032101;-32
2024/01/09 01:38:08;;;;;;;19.00;15.60;;;;;;;;;;43435;269;3031103;-32
2024/01/09 01:39:53;;;;;;;18.80;15.50;;;;;;;;;;43400;281;3030545;-32
2024/01/09 01:41:38;;;;;;;18.10;15.20;;;;;;;;;;43407;290;3031243;-31
2024/01/09 01:43:23;;;;;;;18.50;15.50;;;;;;;;;;43460;270;3030690;-32
2024/01/09 01:45:21;;;;;;;19.10;15.50;;;;;;;;;;43437;281;3032775;-32
2024/01/09 01:47:06;;;;;;;18.60;15.70;;;;;;;;;;43542;281;3031202;-32
2024/01/09 01:48:51;;;;;;;19.10;15.60;;;;;;;;;;43951;277;3030490;-32
2024/01/09 01:50:37;;;;;;;17.80;15.10;;;;;;;;;;44124;277;3031808;-32
2024/01/09 01:52:22;;;;;;;18.20;15.90;;;;;;;;;;44095;281;3030838;-32
2024/01/09 01:54:07;;;;;;;18.20;15.60;;;;;;;;;;43431;281;3030721;-32
2024/01/09 01:55:59;;;;;;;19.10;15.90;;;;;;;;;;43412;281;3032618;-32
2024/01/09 01:57:47;;;;;;;19.00;15.30;;;;;;;;;;43427;273;3030789;-32
2024/01/09 01:59:38;;;;;;;19.50;16.10;;;;;;;;;;43433;273;3031132;-32
2024/01/09 02:01:23;;;;;;;19.20;16.00;;;;;;;;;;44102;285;3030955;-32
2024/01/09 02:03:12;;;;;;;19.10;16.30;;;;;;;;;;43960;289;3030782;-32
2024/01/09 02:04:57;;;;;;;19.10;16.20;;;;;;;;;;43447;273;3031709;-31
2024/01/09 02:06:44;;;;;;;19.50;16.10;;;;;;;;;;43304;278;3031157;-31
2024/01/09 02:08:32;;;;;;;19.70;16.30;;;;;;;;;;43413;273;3031284;-32
2024/01/09 02:10:18;;;;;;;19.70;15.90;;;;;;;;;;43424;273;3030769;-32
2024/01/09 02:12:07;;;;;;;19.90;16.30;;;;;;;;;;43424;289;3038975;-32
2024/01/09 02:13:52;;;;;;;20.10;16.70;;;;;;;;;;44005;277;3030898;-32
2024/01/09 02:15:37;;;;;;;20.60;17.60;;;;;;;;;;43414;281;3031067;-32
2024/01/09 02:17:23;;;;;;;20.10;16.90;;;;;;;;;;43444;281;3031157;-31
2024/01/09 02:19:15;;;;;;;21.10;17.30;;;;;;;;;;43419;281;3031365;-31
2024/01/09 02:21:01;;;;;;;21.30;17.70;;;;;;;;;;44120;270;3030423;-31
2024/01/09 02:22:48;;;;;;;19.60;16.60;;;;;;;;;;43614;281;3030822;-31
2024/01/09 02:24:34;;;;;;;22.20;17.40;;;;;;;;;;44130;289;3030845;-31
2024/01/09 02:26:29;;;;;;;21.00;17.40;;;;;;;;;;43489;281;3030690;-31
2024/01/09 02:28:45;;;;;;;21.80;17.50;;;;;;;;;;43674;273;3030622;-31
2024/01/09 02:30:31;;;;;;;21.30;18.30;;;;;;;;;;43451;269;3030902;-32
2024/01/09 02:32:17;;;;;;;21.00;17.80;;;;;;;;;;43408;281;3030646;-32
2024/01/09 02:34:03;;;;;;;21.00;17.70;;;;;;;;;;43437;273;3031371;-32
2024/01/09 02:35:51;;;;;;;21.20;17.60;;;;;;;;;;43442;273;3031199;-31
2024/01/09 02:37:36;;;;;;;21.60;17.90;;;;;;;;;;43427;281;3031063;-31
2024/01/09 02:39:21;;;;;;;20.80;17.80;;;;;;;;;;43415;290;3029800;-31
2024/01/09 02:41:08;;;;;;;22.10;18.60;;;;;;;;;;43422;270;3031477;-31
2024/01/09 02:42:54;;;;;;;21.20;18.30;;;;;;;;;;43427;281;3038859;-31
2024/01/09 02:44:39;;;;;;;22.20;19.00;;;;;;;;;;43414;281;3030635;-31
2024/01/09 02:46:25;;;;;;;22.70;18.70;;;;;;;;;;43453;290;3031258;-31
2024/01/09 02:48:11;;;;;;;22.50;19.00;;;;;;;;;;44100;277;3030440;-31
2024/01/09 02:49:56;;;;;;;21.50;18.10;;;;;;;;;;43486;281;3030710;-31
2024/01/09 02:51:41;;;;;;;22.60;19.30;;;;;;;;;;43417;273;3031260;-32
2024/01/09 02:53:27;;;;;;;23.30;19.30;;;;;;;;;;43422;269;3030149;-32
2024/01/09 02:55:12;;;;;;;23.10;19.50;;;;;;;;;;43446;273;3031124;-32
2024/01/09 02:56:59;;;;;;;24.20;20.00;;;;;;;;;;43429;281;3030515;-31
2024/01/09 02:58:44;;;;;;;22.90;19.30;;;;;;;;;;43425;281;3030968;-31
2024/01/09 03:00:29;;;;;;;22.40;19.40;;;;;;;;;;43457;281;3030276;-31
2024/01/09 03:02:15;;;;;;;23.40;19.60;;;;;;;;;;43384;281;3031034;-32
2024/01/09 03:04:00;;;;;;;24.20;20.00;;;;;;;;;;43421;277;3030462;-31
2024/01/09 03:05:45;;;;;;;22.90;19.50;;;;;;;;;;44113;273;3031226;-32
2024/01/09 03:07:30;;;;;;;22.70;19.70;;;;;;;;;;43553;281;3030275;-32
2024/01/09 03:09:16;;;;;;;23.00;20.10;;;;;;;;;;43462;265;3030959;-32
2024/01/09 03:11:02;;;;;;;24.90;20.00;;;;;;;;;;43430;269;3031411;-31
2024/01/09 03:12:47;;;;;;;22.50;19.30;;;;;;;;;;43416;273;3032850;-31
2024/01/09 03:14:32;;;;;;;23.00;19.50;;;;;;;;;;43448;281;3031160;-31
2024/01/09 03:16:18;;;;;;;24.60;20.40;;;;;;;;;;43436;269;3031527;-32
2024/01/09 03:18:08;;;;;;;23.30;20.10;;;;;;;;;;43416;281;3032101;-31
2024/01/09 03:19:53;;;;;;;24.10;19.90;;;;;;;;;;44154;281;3031074;-31
2024/01/09 03:21:38;;;;;;;23.10;19.90;;;;;;;;;;44137;281;3031017;-31
2024/01/09 03:23:25;;;;;;;23.20;19.50;;;;;;;;;;43698;269;3030528;-32
2024/01/09 03:25:11;;;;;;;23.30;19.40;;;;;;;;;;43442;277;3031215;-32
2024/01/09 03:26:55;;;;;;;23.10;19.50;;;;;;;;;;44134;269;3029917;-32
2024/01/09 03:28:41;;;;;;;22.70;19.70;;;;;;;;;;43453;281;3030665;-32
2024/01/09 03:30:29;;;;;;;23.60;20.20;;;;;;;;;;43431;270;3030761;-32
2024/01/09 03:32:14;;;;;;;23.50;20.30;;;;;;;;;;43410;281;3032073;-32
2024/01/09 03:33:58;;;;;;;23.50;20.00;;;;;;;;;;43428;281;3037972;-32
2024/01/09 03:35:46;;;;;;;23.20;19.90;;;;;;;;;;43428;273;3030743;-32
2024/01/09 03:37:31;;;;;;;23.50;19.60;;;;;;;;;;43444;281;3031186;-33
2024/01/09 03:39:17;;;;;;;23.00;20.10;;;;;;;;;;43436;273;3030477;-33
2024/01/09 03:41:03;;;;;;;23.50;20.10;;;;;;;;;;43431;273;3031176;-34
2024/01/09 03:42:47;;;;;;;23.40;20.20;;;;;;;;;;43411;269;3030864;-33
2024/01/09 03:44:32;;;;;;;24.20;20.10;;;;;;;;;;43428;273;3030947;-33
2024/01/09 03:46:18;;;;;;;24.30;19.90;;;;;;;;;;43436;281;3030820;-33
2024/01/09 03:48:06;;;;;;;23.50;19.80;;;;;;;;;;43419;277;3031052;-34
2024/01/09 03:49:54;;;;;;;23.60;19.80;;;;;;;;;;43540;281;3030870;-33
2024/01/09 03:51:40;;;;;;;24.00;19.50;;;;;;;;;;43424;281;3030616;-34
2024/01/09 03:53:24;;;;;;;22.80;19.60;;;;;;;;;;43400;281;3030245;-33
2024/01/09 03:55:11;;;;;;;23.20;19.40;;;;;;;;;;43430;281;3030602;-33
2024/01/09 03:56:56;;;;;;;25.20;20.50;;;;;;;;;;43922;281;3030168;-34
2024/01/09 03:58:43;;;;;;;24.50;19.80;;;;;;;;;;43428;281;3031119;-33
2024/01/09 04:00:28;;;;;;;23.70;19.70;;;;;;;;;;43453;273;3030794;-33
2024/01/09 04:02:13;;;;;;;24.10;20.40;;;;;;;;;;43431;273;3030866;-33
2024/01/09 04:03:57;;;;;;;25.20;20.00;;;;;;;;;;43433;281;3030818;-33
2024/01/09 04:05:46;;;;;;;25.00;20.00;;;;;;;;;;43437;281;3031109;-33
2024/01/09 04:07:31;;;;;;;23.00;19.90;;;;;;;;;;43808;281;3030668;-33
2024/01/09 04:09:16;;;;;;;23.50;19.90;;;;;;;;;;43428;277;3031077;-33
2024/01/09 04:11:01;;;;;;;23.80;19.90;;;;;;;;;;43443;281;3030268;-33
2024/01/09 04:12:46;;;;;;;23.10;19.20;;;;;;;;;;43432;281;3031093;-34
2024/01/09 04:14:31;;;;;;;22.30;19.30;;;;;;;;;;43411;273;3030758;-33
2024/01/09 04:16:20;;;;;;;23.40;18.90;;;;;;;;;;43448;281;3031222;-33
2024/01/09 04:18:09;;;;;;;22.90;19.60;;;;;;;;;;43452;281;3031297;-34
2024/01/09 04:19:54;;;;;;;23.20;19.30;;;;;;;;;;43434;281;3031248;-34
2024/01/09 04:21:41;;;;;;;23.50;19.90;;;;;;;;;;43383;274;3031312;-33
2024/01/09 04:23:26;;;;;;;23.00;19.00;;;;;;;;;;43391;277;3031371;-34
2024/01/09 04:25:13;;;;;;;24.20;19.80;;;;;;;;;;43429;270;3037290;-33
2024/01/09 04:26:58;;;;;;;24.80;19.40;;;;;;;;;;43422;273;3031322;-33
2024/01/09 04:28:43;;;;;;;23.40;18.90;;;;;;;;;;43410;281;3031156;-34
2024/01/09 04:30:29;;;;;;;21.80;19.00;;;;;;;;;;43447;281;3031184;-33
2024/01/09 04:32:15;;;;;;;23.50;19.60;;;;;;;;;;43439;270;3031210;-34
2024/01/09 04:34:00;;;;;;;23.50;19.50;;;;;;;;;;43401;281;3030836;-34
2024/01/09 04:35:45;;;;;;;23.00;19.30;;;;;;;;;;44140;277;3030508;-33
2024/01/09 04:37:30;;;;;;;21.70;18.70;;;;;;;;;;43559;281;3030181;-34
2024/01/09 04:39:15;;;;;;;22.20;18.80;;;;;;;;;;43411;281;3031208;-33
2024/01/09 04:41:00;;;;;;;22.80;19.10;;;;;;;;;;43438;290;3030699;-34
2024/01/09 04:42:46;;;;;;;23.20;19.10;;;;;;;;;;43421;273;3030896;-33
2024/01/09 04:44:31;;;;;;;22.20;19.00;;;;;;;;;;43413;280;3030525;-34
2024/01/09 04:46:16;;;;;;;24.00;19.70;;;;;;;;;;43435;270;3033258;-33
2024/01/09 04:48:01;;;;;;;23.40;19.20;;;;;;;;;;43445;281;3031133;-33
2024/01/09 04:49:46;;;;;;;21.20;18.50;;;;;;;;;;43454;281;3030740;-33
2024/01/09 04:51:31;;;;;;;23.40;19.60;;;;;;;;;;43405;281;3030145;-33
2024/01/09 04:53:17;;;;;;;21.90;18.80;;;;;;;;;;43429;273;3031069;-33
2024/01/09 04:55:02;;;;;;;22.20;19.00;;;;;;;;;;43403;281;3031079;-33
2024/01/09 04:56:49;;;;;;;22.50;18.60;;;;;;;;;;43311;283;3031119;-34
2024/01/09 04:58:34;;;;;;;22.10;18.30;;;;;;;;;;43417;271;3030167;-33
2024/01/09 05:00:22;;;;;;;21.90;18.70;;;;;;;;;;43432;273;3030571;-33
2024/01/09 05:02:07;;;;;;;21.50;18.60;;;;;;;;;;43989;273;3030381;-33
2024/01/09 05:03:53;;;;;;;21.80;18.30;;;;;;;;;;44148;290;3030609;-34
2024/01/09 05:05:38;;;;;;;21.70;18.00;;;;;;;;;;44085;277;3030703;-34
2024/01/09 05:07:23;;;;;;;21.90;17.90;;;;;;;;;;43847;273;3030623;-34
2024/01/09 05:09:07;;;;;;;21.90;18.70;;;;;;;;;;43433;281;3030530;-33
2024/01/09 05:10:52;;;;;;;22.40;18.20;;;;;;;;;;43451;281;3030180;-33
2024/01/09 05:12:39;;;;;;;21.60;18.30;;;;;;;;;;43434;269;3030988;-34
2024/01/09 05:14:24;;;;;;;20.10;17.20;;;;;;;;;;43327;267;3030964;-34
2024/01/09 05:16:10;;;;;;;20.30;17.50;;;;;;;;;;43400;270;3037361;-33
2024/01/09 05:17:55;;;;;;;20.50;18.20;;;;;;;;;;43453;281;3030175;-34
2024/01/09 05:19:41;;;;;;;20.80;17.80;;;;;;;;;;43436;277;3032116;-34
2024/01/09 05:21:30;;;;;;;21.20;18.00;;;;;;;;;;43401;281;3030546;-34
2024/01/09 05:23:15;;;;;;;21.50;18.50;;;;;;;;;;43416;269;3031302;-34
2024/01/09 05:25:03;;;;;;;20.90;17.50;;;;;;;;;;43422;273;3030845;-33
2024/01/09 05:26:49;;;;;;;21.80;17.40;;;;;;;;;;43447;281;3037343;-34
2024/01/09 05:28:34;;;;;;;21.20;17.70;;;;;;;;;;43423;269;3030246;-34
2024/01/09 05:30:19;;;;;;;21.60;17.60;;;;;;;;;;43438;281;3030584;-33
2024/01/09 05:32:08;;;;;;;20.10;17.50;;;;;;;;;;43434;281;3031408;-33
2024/01/09 05:33:52;;;;;;;20.90;17.30;;;;;;;;;;43750;281;3031864;-34
2024/01/09 05:35:37;;;;;;;21.00;17.30;;;;;;;;;;43395;281;3031039;-34
2024/01/09 05:37:25;;;;;;;20.50;17.40;;;;;;;;;;43404;273;3030725;-34
2024/01/09 05:39:12;;;;;;;20.90;17.80;;;;;;;;;;43347;281;3031521;-34
2024/01/09 05:40:57;;;;;;;19.80;17.20;;;;;;;;;;43383;281;3029044;-33
2024/01/09 05:42:44;;;;;;;20.60;17.00;;;;;;;;;;43253;275;3031114;-33
2024/01/09 05:44:29;;;;;;;20.10;17.00;;;;;;;;;;43349;281;3030293;-33
2024/01/09 05:46:19;;;;;;;19.90;16.80;;;;;;;;;;43383;290;3030536;-33
2024/01/09 05:48:06;;;;;;;19.60;16.50;;;;;;;;;;43540;281;3030262;-33
2024/01/09 05:49:51;;;;;;;19.20;16.40;;;;;;;;;;44117;281;3031738;-34
2024/01/09 05:51:35;;;;;;;19.00;16.20;;;;;;;;;;44116;281;3030236;-34
2024/01/09 05:53:20;;;;;;;19.50;16.10;;;;;;;;;;44139;277;3030384;-34
2024/01/09 05:55:09;;;;;;;19.60;17.10;;;;;;;;;;43673;273;3030276;-33
2024/01/09 05:56:54;;;;;;;19.40;16.10;;;;;;;;;;44104;277;3030960;-34
2024/01/09 05:58:39;;;;;;;20.20;16.50;;;;;;;;;;43414;281;3030935;-34
2024/01/09 06:00:26;;;;;;;18.20;16.10;;;;;;;;;;43428;273;3031006;-33
2024/01/09 06:02:11;;;;;;;20.20;16.70;;;;;;;;;;43453;273;3030002;-34
2024/01/09 06:03:56;;;;;;;19.60;16.70;;;;;;;;;;43435;265;3031794;-33
2024/01/09 06:05:41;;;;;;;18.40;15.80;;;;;;;;;;43431;281;3030933;-34
2024/01/09 06:07:26;;;;;;;18.60;15.20;;;;;;;;;;43402;288;3031566;-33
2024/01/09 06:09:13;;;;;;;19.20;16.20;;;;;;;;;;43432;281;3030853;-34
2024/01/09 06:10:58;;;;;;;17.70;15.60;;;;;;;;;;43451;281;3030385;-34
2024/01/09 06:12:43;;;;;;;18.10;16.00;;;;;;;;;;43420;281;3030348;-33
2024/01/09 06:14:30;;;;;;;19.20;15.70;;;;;;;;;;43440;273;3030688;-33
2024/01/09 06:16:18;;;;;;;19.80;16.60;;;;;;;;;;43412;281;3031340;-34
2024/01/09 06:18:04;;;;;;;18.60;16.10;;;;;;;;;;43443;273;3037333;-33
2024/01/09 06:19:50;;;;;;;19.30;16.00;;;;;;;;;;43431;269;3033332;-33
2024/01/09 06:21:35;;;;;;;18.30;15.80;;;;;;;;;;43419;290;3030959;-33
2024/01/09 06:23:20;;;;;;;18.40;15.50;;;;;;;;;;43454;269;3031293;-33
2024/01/09 06:25:06;;;;;;;18.70;15.80;;;;;;;;;;43435;281;3030521;-33
2024/01/09 06:26:51;;;;;;;18.20;14.90;;;;;;;;;;44104;276;3031032;-34
2024/01/09 06:28:37;;;;;;;19.40;16.10;;;;;;;;;;43902;281;3031103;-34
2024/01/09 06:30:22;;;;;;;17.80;15.50;;;;;;;;;;43445;269;3030530;-34
2024/01/09 06:32:09;;;;;;;18.50;15.90;;;;;;;;;;43422;269;3030923;-34
2024/01/09 06:33:54;;;;;;;17.80;15.10;;;;;;;;;;43777;281;3031341;-33
2024/01/09 06:35:39;;;;;;;19.00;16.50;;;;;;;;;;43431;269;3030713;-33
2024/01/09 06:37:27;;;;;;;17.90;15.60;;;;;;;;;;43412;273;3030590;-34
2024/01/09 06:39:16;;;;;;;17.80;15.80;;;;;;;;;;43446;273;3030856;-33
2024/01/09 06:41:02;;;;;;;19.10;16.30;;;;;;;;;;43430;281;3030418;-33
2024/01/09 06:42:47;;;;;;;18.60;15.50;;;;;;;;;;43417;281;3030689;-34
2024/01/09 06:44:32;;;;;;;17.40;15.10;;;;;;;;;;43439;289;3031318;-34
2024/01/09 06:46:17;;;;;;;19.30;16.50;;;;;;;;;;43430;270;3030863;-34
2024/01/09 06:48:07;;;;;;;17.80;15.20;;;;;;;;;;43288;271;3031276;-34
2024/01/09 06:49:52;;;;;;;17.10;14.90;;;;;;;;;;43527;281;3031100;-34
2024/01/09 06:51:43;;;;;;;18.30;15.80;;;;;;;;;;43462;277;3031454;-35
2024/01/09 06:53:29;;;;;;;18.20;15.80;;;;;;;;;;43432;269;3031291;-34
2024/01/09 06:55:21;;;;;;;18.80;15.70;;;;;;;;;;43434;281;3030526;-34
2024/01/09 06:57:11;;;;;;;19.30;15.90;;;;;;;;;;43405;273;3030662;-34
2024/01/09 06:58:56;;;;;;;19.50;16.50;;;;;;;;;;44118;273;3036665;-34
2024/01/09 07:00:41;;;;;;;18.20;16.10;;;;;;;;;;44166;269;3030057;-34
2024/01/09 07:02:25;;;;;;;18.50;16.00;;;;;;;;;;44162;281;3030958;-34
2024/01/09 07:04:10;;;;;;;19.10;16.40;;;;;;;;;;44119;276;3030286;-34
2024/01/09 07:05:55;;;;;;;17.80;15.10;;;;;;;;;;43787;281;3030644;-34
2024/01/09 07:07:44;;;;;;;19.80;16.30;;;;;;;;;;43430;273;3030756;-34
2024/01/09 07:09:34;;;;;;;18.60;16.10;;;;;;;;;;43426;273;3038576;-34
2024/01/09 07:11:21;;;;;;;19.50;16.20;;;;;;;;;;43421;281;3030664;-34
2024/01/09 07:13:07;;;;;;;19.00;15.70;;;;;;;;;;43423;273;3032168;-34
2024/01/09 07:14:53;;;;;;;18.30;15.00;;;;;;;;;;44105;277;3030712;-34
2024/01/09 07:16:39;;;;;;;19.00;15.40;;;;;;;;;;43434;269;3030880;-34
2024/01/09 07:18:27;;;;;;;19.60;15.40;;;;;;;;;;43388;281;3031284;-34
2024/01/09 07:20:15;;;;;;;18.70;16.30;;;;;;;;;;43416;281;3031100;-34
2024/01/09 07:22:00;;;;;;;18.30;15.50;;;;;;;;;;44132;273;3030918;-34
2024/01/09 07:23:46;;;;;;;18.40;16.00;;;;;;;;;;43643;273;3029924;-34
2024/01/09 07:25:32;;;;;;;18.90;15.80;;;;;;;;;;43414;273;3031848;-33
2024/01/09 07:27:19;;;;;;;18.00;15.60;;;;;;;;;;43367;269;3031479;-33
2024/01/09 07:29:04;;;;;;;18.80;15.60;;;;;;;;;;43404;265;3030890;-34
2024/01/09 07:30:52;;;;;;;17.90;15.00;;;;;;;;;;43439;289;3031290;-34
2024/01/09 07:32:37;;;;;;;17.90;15.00;;;;;;;;;;43400;285;3030565;-34
2024/01/09 07:34:23;;;;;;;19.10;15.40;;;;;;;;;;43465;273;3031176;-33
2024/01/09 07:36:10;;;;;;;19.20;15.50;;;;;;;;;;43416;281;3030450;-33
2024/01/09 07:37:55;;;;;;;19.40;15.00;;;;;;;;;;44128;281;3031025;-33
2024/01/09 07:39:40;;;;;;;17.40;15.20;;;;;;;;;;43524;281;3031238;-33
2024/01/09 07:41:25;;;;;;;18.80;15.30;;;;;;;;;;43430;277;3031296;-34
2024/01/09 07:43:13;;;;;;;18.30;15.20;;;;;;;;;;43437;281;3031236;-34
2024/01/09 07:44:59;;;;;;;19.50;15.90;;;;;;;;;;43442;281;3030454;-33
2024/01/09 07:46:45;;;;;;;18.20;14.90;;;;;;;;;;43439;281;3030519;-33
2024/01/09 07:48:37;;;;;;;17.50;14.60;;;;;;;;;;43409;281;3031471;-33
2024/01/09 07:50:23;;;;;;;17.90;14.80;;;;;;;;;;43407;290;3037460;-33
2024/01/09 07:52:11;;;;;;;18.10;14.80;;;;;;;;;;43441;273;3030782;-33
2024/01/09 07:53:57;;;;;;;18.60;15.50;;;;;;;;;;43319;275;3031481;-33
2024/01/09 07:55:42;;;;;;;18.00;15.00;;;;;;;;;;43417;271;3030053;-33
2024/01/09 07:57:29;;;;;;;18.00;14.80;;;;;;;;;;43415;281;3031343;-33
2024/01/09 07:59:16;;;;;;;18.90;15.00;;;;;;;;;;43408;281;3031064;-33
2024/01/09 08:01:02;;;;;;;17.90;14.60;;;;;;;;;;43423;277;3030925;-33
2024/01/09 08:02:47;;;;;;;19.10;15.10;;;;;;;;;;43406;269;3030638;-33
2024/01/09 08:04:33;;;;;;;19.00;15.00;;;;;;;;;;43426;281;3031688;-33
2024/01/09 08:06:18;;;;;;;18.30;15.10;;;;;;;;;;43416;273;3031166;-33
2024/01/09 08:08:04;;;;;;;18.30;15.10;;;;;;;;;;43416;269;3030797;-33
2024/01/09 08:09:48;;;;;;;19.00;15.40;;;;;;;;;;44103;273;3031149;-34
2024/01/09 08:11:35;;;;;;;18.80;15.90;;;;;;;;;;43426;281;3030548;-33
2024/01/09 08:13:22;;;;;;;18.50;15.60;;;;;;;;;;43443;265;3030976;-33
2024/01/09 08:15:11;;;;;;;17.80;15.30;;;;;;;;;;43449;269;3031270;-33
2024/01/09 08:16:56;;;;;;;19.20;15.80;;;;;;;;;;44125;290;3031246;-33
2024/01/09 08:18:41;;;;;;;19.60;16.20;;;;;;;;;;43591;281;3030200;-34
2024/01/09 08:20:28;;;;;;;20.00;16.70;;;;;;;;;;43411;273;3031048;-34
2024/01/09 08:22:13;;;;;;;19.90;16.60;;;;;;;;;;44071;273;3030913;-33
2024/01/09 08:23:58;;;;;;;19.70;16.50;;;;;;;;;;43437;281;3030343;-34
2024/01/09 08:25:45;;;;;;;21.00;17.10;;;;;;;;;;43430;269;3031791;-34
2024/01/09 08:27:30;;;;;;;18.90;16.50;;;;;;;;;;43430;273;3030752;-33
2024/01/09 08:29:16;;;;;;;18.80;16.50;;;;;;;;;;43451;281;3030897;-34
2024/01/09 08:31:01;;;;;;;18.90;16.70;;;;;;;;;;44130;270;3030000;-34
2024/01/09 08:32:45;;;;;;;20.40;16.30;;;;;;;;;;43965;273;3032035;-33
2024/01/09 08:34:30;;;;;;;19.60;16.60;;;;;;;;;;43444;273;3030034;-34
2024/01/09 08:36:16;;;;;;;19.70;16.80;;;;;;;;;;43436;281;3030915;-34
2024/01/09 08:38:04;;;;;;;19.60;16.50;;;;;;;;;;43461;269;3032240;-34
2024/01/09 08:40:06;;;;;;;20.00;17.00;;;;;;;;;;43569;270;3031108;-32
2024/01/09 08:41:58;;;;;;;20.50;17.00;;;;;;;;;;43764;270;3035446;-33
2024/01/09 08:43:50;;;;;;;20.70;17.20;;;;;;;;;;43382;282;3031031;-33
2024/01/09 08:45:47;;;;;;;20.60;17.10;;;;;;;;;;43392;282;3031388;-33
2024/01/09 08:47:38;;;;;;;20.70;17.40;;;;;;;;;;43421;274;3030685;-32
2024/01/09 08:49:30;;;;;;;21.30;17.90;;;;;;;;;;43531;274;3031127;-32
2024/01/09 08:51:22;;;;;;;19.40;16.90;;;;;;;;;;43368;270;3030544;-32
2024/01/09 08:53:24;;;;;;;21.20;17.40;;;;;;;;;;43382;270;3031175;-32
2024/01/09 08:55:18;;;;;;;20.20;17.20;;;;;;;;;;43356;281;3030575;-32
2024/01/09 08:57:19;;;;;;;20.60;17.20;;;;;;;;;;43309;280;3030860;-33
2024/01/09 08:59:21;;;;;;;21.00;17.60;;;;;;;;;;44101;282;3031188;-33
2024/01/09 09:01:11;;;;;;;20.60;17.90;;;;;;;;;;43371;282;3030911;-32
2024/01/09 09:02:58;;;;;;;21.10;17.60;;;;;;;;;;43401;278;3032889;-32
2024/01/09 09:04:48;;;;;;;21.00;17.60;;;;;;;;;;43395;282;3030967;-33
2024/01/09 09:06:42;;;;;;;20.30;17.50;;;;;;;;;;43541;282;3030875;-33
2024/01/09 09:08:30;;;;;;;20.40;17.30;;;;;;;;;;43856;291;3030541;-32
2024/01/09 09:10:25;;;;;;;20.80;17.40;;;;;;;;;;43399;270;3031237;-33
2024/01/09 09:12:22;;;;;;;20.60;17.20;;;;;;;;;;44099;290;3030655;-33
2024/01/09 09:14:15;;;;;;;19.50;16.60;;;;;;;;;;44073;282;3030621;-33
2024/01/09 09:16:02;;;;;;;20.30;17.20;;;;;;;;;;43464;282;3031668;-33
2024/01/09 09:17:55;;;;;;;20.30;17.90;;;;;;;;;;43844;274;3031320;-33
2024/01/09 09:19:46;;;;;;;21.00;17.50;;;;;;;;;;43402;274;3031996;-33
2024/01/09 09:21:38;;;;;;;19.70;16.70;;;;;;;;;;43352;282;3030888;-33
2024/01/09 09:23:25;;;;;;;21.40;17.70;;;;;;;;;;43401;271;3030602;-33
2024/01/09 09:25:20;;;;;;;19.50;17.40;;;;;;;;;;43364;274;3031907;-33
2024/01/09 09:27:13;;;;;;;19.60;17.00;;;;;;;;;;43433;282;3030957;-33
2024/01/09 09:29:07;;;;;;;19.80;16.80;;;;;;;;;;43698;282;3031675;-33
2024/01/09 09:31:09;;;;;;;18.90;16.40;;;;;;;;;;43412;278;3030457;-32
2024/01/09 09:33:00;;;;;;;19.70;16.60;;;;;;;;;;43379;281;3037664;-40
2024/01/09 09:34:49;;;;;;;21.20;17.20;;;;;;;;;;43374;282;3030956;-32
2024/01/09 09:36:44;;;;;;;19.60;17.00;;;;;;;;;;43394;270;3031031;-32
2024/01/09 09:38:34;;;;;;;20.00;17.30;;;;;;;;;;43372;282;3030970;-32
2024/01/09 09:40:23;;;;;;;20.20;17.70;;;;;;;;;;43367;274;3031269;-33
2024/01/09 09:42:24;;;;;;;20.60;17.20;;;;;;;;;;43364;278;3031074;-32
2024/01/09 09:44:28;;;;;;;20.00;16.80;;;;;;;;;;44105;270;3030834;-32
2024/01/09 09:46:28;;;;;;;20.70;17.70;;;;;;;;;;43469;270;3030402;-32
2024/01/09 09:48:23;;;;;;;20.90;17.70;;;;;;;;;;43378;270;3030543;-32
2024/01/09 09:50:26;;;;;;;20.40;17.40;;;;;;;;;;43471;274;3030864;-32
2024/01/09 09:52:22;;;;;;;21.70;16.90;;;;;;;;;;44059;282;3030780;-32
2024/01/09 09:54:07;;;;;;;22.10;17.60;;;;;;;;;;43589;282;3030952;-32
2024/01/09 09:56:03;;;;;;;21.60;17.10;;;;;;;;;;43445;281;3031111;-32
2024/01/09 09:57:52;;;;;;;20.90;16.90;;;;;;;;;;43376;281;3030848;-32
2024/01/09 09:59:46;;;;;;;22.20;17.30;;;;;;;;;;43466;281;3031047;-31
2024/01/09 10:01:37;;;;;;;22.10;17.40;;;;;;;;;;43883;278;3030973;-31
2024/01/09 10:03:35;;;;;;;20.30;17.30;;;;;;;;;;43970;282;3031309;-32
2024/01/09 10:05:35;;;;;;;20.90;17.60;;;;;;;;;;43715;281;3030539;-32
2024/01/09 10:07:41;;;;;;;21.70;17.00;;;;;;;;;;44105;274;3030623;-32
2024/01/09 10:09:53;;;;;;;21.00;17.60;;;;;;;;;;44074;282;3032009;-32
2024/01/09 10:11:44;;;;;;;21.10;17.30;;;;;;;;;;44122;278;3030528;-32
2024/01/09 10:13:37;;;;;;;21.30;17.30;;;;;;;;;;43603;282;3031077;-32
2024/01/09 10:15:28;;;;;;;21.60;17.40;;;;;;;;;;43378;281;3037964;-32